createdAt,value
2023-02-27T00:00:16.494Z,7.022302
2023-02-27T00:05:17.312Z,7.081119
2023-02-27T00:10:16.113Z,7.076596
2023-02-27T00:15:16.071Z,7.114184
2023-02-27T00:20:15.941Z,6.765714
2023-02-27T00:25:15.600Z,6.482014
2023-02-27T00:30:17.643Z,6.389855
2023-02-27T00:35:22.500Z,6.743478
2023-02-27T00:40:16.204Z,7.102899
2023-02-27T00:45:15.464Z,7.128571
2023-02-27T00:50:16.428Z,6.947826
2023-02-27T00:55:23.898Z,7.099291
2023-02-27T01:00:17.517Z,6.729710
2023-02-27T01:05:16.085Z,6.172464
2023-02-27T01:10:17.382Z,6.034532
2023-02-27T01:15:16.694Z,5.957857
2023-02-27T01:20:18.433Z,5.461702
2023-02-27T01:25:17.376Z,5.151079
2023-02-27T01:30:15.903Z,5.030714
2023-02-27T01:35:16.220Z,4.987234
2023-02-27T01:40:16.262Z,5.014184
2023-02-27T01:45:16.883Z,5.071631
2023-02-27T01:50:15.803Z,5.084173
2023-02-27T01:55:17.720Z,5.023571
2023-02-27T02:00:17.582Z,4.916547
2023-02-27T02:05:16.818Z,4.810000
2023-02-27T02:10:20.898Z,4.782609
2023-02-27T02:15:16.969Z,4.687770
2023-02-27T02:20:18.715Z,4.650365
2023-02-27T02:25:15.803Z,4.645255
2023-02-27T02:30:16.670Z,4.638129
2023-02-27T02:35:15.918Z,4.571014
2023-02-27T02:40:16.912Z,4.547482
2023-02-27T02:45:21.980Z,4.494928
2023-02-27T02:50:19.471Z,4.397122
2023-02-27T02:55:15.800Z,4.399281
2023-02-27T03:00:16.496Z,4.487143
2023-02-27T03:05:16.871Z,4.517266
2023-02-27T03:10:16.668Z,4.529710
2023-02-27T03:15:18.070Z,4.494161
2023-02-27T03:20:17.175Z,4.491852
2023-02-27T03:25:16.760Z,4.486861
2023-02-27T03:30:17.817Z,4.551799
2023-02-27T03:35:16.341Z,4.533094
2023-02-27T03:40:16.669Z,4.539416
2023-02-27T03:45:17.818Z,4.600000
2023-02-27T03:50:16.910Z,4.627338
2023-02-27T03:55:16.143Z,4.631655
2023-02-27T04:00:17.068Z,4.646043
2023-02-27T04:05:16.775Z,4.600000
2023-02-27T04:10:16.505Z,4.596429
2023-02-27T04:15:15.922Z,4.512143
2023-02-27T04:20:16.725Z,4.501429
2023-02-27T04:25:15.929Z,4.487050
2023-02-27T04:30:17.688Z,4.469286
2023-02-27T04:35:15.997Z,4.424286
2023-02-27T04:40:17.119Z,4.452518
2023-02-27T04:45:16.905Z,4.437410
2023-02-27T04:50:18.365Z,4.434532
2023-02-27T04:55:15.672Z,4.388406
2023-02-27T05:00:18.097Z,4.326619
2023-02-27T05:05:17.559Z,4.276642
2023-02-27T05:10:16.872Z,4.310714
2023-02-27T05:15:16.638Z,4.308633
2023-02-27T05:20:15.894Z,4.225899
2023-02-27T05:25:17.909Z,4.156618
2023-02-27T05:30:16.575Z,4.123571
2023-02-27T05:35:17.516Z,4.128261
2023-02-27T05:40:21.347Z,4.134783
2023-02-27T05:45:18.072Z,4.089855
2023-02-27T05:50:17.164Z,4.089928
2023-02-27T05:55:18.735Z,3.945652
2023-02-27T06:00:17.233Z,3.836029
2023-02-27T06:05:18.321Z,3.818841
2023-02-27T06:10:17.801Z,3.768345
2023-02-27T06:15:16.332Z,3.705882
2023-02-27T06:20:16.165Z,3.658571
2023-02-27T06:25:16.251Z,3.597857
2023-02-27T06:30:21.730Z,3.560145
2023-02-27T06:35:15.948Z,3.460000
2023-02-27T06:40:17.280Z,3.497143
2023-02-27T06:45:22.200Z,3.465000
2023-02-27T06:50:17.365Z,3.497857
2023-02-27T06:55:15.984Z,3.510000
2023-02-27T07:00:16.419Z,3.597183
2023-02-27T07:05:15.765Z,3.693706
2023-02-27T07:10:16.907Z,3.676224
2023-02-27T07:15:16.004Z,3.652817
2023-02-27T07:20:23.319Z,3.630496
2023-02-27T07:25:16.846Z,3.728671
2023-02-27T07:30:16.866Z,3.743056
2023-02-27T07:35:18.001Z,3.723611
2023-02-27T07:40:17.108Z,3.753793
2023-02-27T07:45:17.284Z,3.823973
2023-02-27T07:50:16.349Z,3.721233
2023-02-27T07:55:16.374Z,3.745890
2023-02-27T08:00:16.615Z,3.870548
2023-02-27T08:05:17.085Z,3.952740
2023-02-27T08:10:22.002Z,3.955479
2023-02-27T08:15:16.438Z,4.006803
2023-02-27T08:20:16.884Z,3.853425
2023-02-27T08:25:16.424Z,3.806250
2023-02-27T08:30:17.077Z,3.745775
2023-02-27T08:35:18.226Z,3.751773
2023-02-27T08:40:17.232Z,3.782394
2023-02-27T08:45:21.043Z,3.906294
2023-02-27T08:50:17.870Z,3.930986
2023-02-27T08:55:17.603Z,3.863830
2023-02-27T09:00:17.992Z,3.939437
2023-02-27T09:05:19.166Z,3.921277
2023-02-27T09:10:16.656Z,3.985106
2023-02-27T09:15:17.820Z,3.947183
2023-02-27T09:20:16.712Z,3.990071
2023-02-27T09:25:16.914Z,3.916084
2023-02-27T09:30:16.179Z,3.946853
2023-02-27T09:35:17.382Z,4.007801
2023-02-27T09:40:15.922Z,4.065035
2023-02-27T09:45:17.659Z,3.923077
2023-02-27T09:50:17.470Z,3.780420
2023-02-27T09:55:15.762Z,3.858333
2023-02-27T10:00:17.318Z,3.854610
2023-02-27T10:05:21.674Z,3.841379
2023-02-27T10:10:16.552Z,3.903472
2023-02-27T10:15:15.952Z,3.894444
2023-02-27T10:20:17.360Z,3.948951
2023-02-27T10:25:30.436Z,3.983803
2023-02-27T10:30:23.547Z,3.937589
2023-02-27T10:35:16.537Z,3.858865
2023-02-27T10:40:17.775Z,3.885106
2023-02-27T10:45:15.850Z,3.856028
2023-02-27T10:50:16.165Z,3.982270
2023-02-27T10:55:16.678Z,4.109091
2023-02-27T11:00:18.442Z,4.213380
2023-02-27T11:05:16.884Z,4.216783
2023-02-27T11:10:16.930Z,4.140141
2023-02-27T11:15:15.704Z,4.120280
2023-02-27T11:20:17.609Z,4.200000
2023-02-27T11:25:16.850Z,4.185315
2023-02-27T11:30:17.133Z,4.128472
2023-02-27T11:35:17.009Z,3.984615
2023-02-27T11:40:16.272Z,3.883448
2023-02-27T11:45:16.036Z,3.834028
2023-02-27T11:50:20.618Z,3.077778
2023-02-27T11:55:17.052Z,2.631250
2023-02-27T12:00:17.616Z,2.621379
2023-02-27T12:05:18.373Z,2.623611
2023-02-27T12:10:21.910Z,2.742177
2023-02-27T12:15:16.950Z,2.720690
2023-02-27T12:20:16.207Z,2.533333
2023-02-27T12:25:16.775Z,2.655172
2023-02-27T12:30:16.755Z,2.677397
2023-02-27T12:35:15.830Z,2.973793
2023-02-27T12:40:16.800Z,3.136552
2023-02-27T12:45:17.631Z,3.163699
2023-02-27T12:50:15.991Z,3.063758
2023-02-27T12:55:18.680Z,2.998639
2023-02-27T13:00:16.602Z,2.734247
2023-02-27T13:05:16.986Z,2.850685
2023-02-27T13:10:16.841Z,3.006122
2023-02-27T13:15:17.253Z,3.152740
2023-02-27T13:20:18.751Z,2.987671
2023-02-27T13:25:16.039Z,2.838356
2023-02-27T13:30:16.333Z,2.489726
2023-02-27T13:35:16.238Z,2.691724
2023-02-27T13:40:15.762Z,2.761379
2023-02-27T13:45:16.758Z,2.595172
2023-02-27T13:50:16.235Z,2.831973
2023-02-27T13:55:18.634Z,2.966438
2023-02-27T14:00:15.904Z,2.821918
2023-02-27T14:05:15.851Z,2.825170
2023-02-27T14:10:16.520Z,2.828378
2023-02-27T14:15:16.143Z,2.587075
2023-02-27T14:20:16.727Z,2.747333
2023-02-27T14:25:17.371Z,2.805405
2023-02-27T14:30:20.950Z,2.930405
2023-02-27T14:35:16.981Z,3.135811
2023-02-27T14:40:28.074Z,3.283673
2023-02-27T14:45:30.935Z,3.140411
2023-02-27T14:50:16.823Z,3.231944
2023-02-27T14:55:16.703Z,3.213287
2023-02-27T15:00:19.064Z,3.273944
2023-02-27T15:05:19.088Z,3.031469
2023-02-27T15:10:18.800Z,3.040426
2023-02-27T15:15:16.819Z,3.037324
2023-02-27T15:20:49.835Z,3.073944
2023-02-27T15:25:15.907Z,3.186620
2023-02-27T15:30:21.497Z,3.107801
2023-02-27T15:35:18.286Z,3.179861
2023-02-27T15:40:17.210Z,3.457241
2023-02-27T15:45:17.335Z,3.792466
2023-02-27T15:50:16.692Z,3.503333
2023-02-27T15:55:21.836Z,3.775000
2023-02-27T16:00:21.639Z,4.023448
2023-02-27T16:05:16.823Z,4.246528
2023-02-27T16:10:17.082Z,4.438889
2023-02-27T16:15:20.981Z,4.726207
2023-02-27T16:20:17.499Z,4.711806
2023-02-27T16:25:16.408Z,4.558621
2023-02-27T16:30:16.783Z,4.552083
2023-02-27T16:35:16.042Z,4.504167
2023-02-27T16:40:18.239Z,4.551724
2023-02-27T16:45:16.867Z,4.694483
2023-02-27T16:50:16.977Z,4.787075
2023-02-27T16:55:17.032Z,4.553103
2023-02-27T17:00:17.446Z,4.691724
2023-02-27T17:05:16.401Z,5.001389
2023-02-27T17:10:17.318Z,5.087500
2023-02-27T17:15:15.992Z,5.297241
2023-02-27T17:20:18.120Z,5.311111
2023-02-27T17:25:17.100Z,5.425874
2023-02-27T17:30:15.968Z,5.485417
2023-02-27T17:35:15.904Z,5.344138
2023-02-27T17:40:15.606Z,5.460274
2023-02-27T17:45:17.131Z,5.216552
2023-02-27T17:50:42.977Z,5.201389
2023-02-27T17:55:17.050Z,4.761806
2023-02-27T18:00:21.547Z,4.698601
2023-02-27T18:05:16.724Z,4.645070
2023-02-27T18:10:17.866Z,4.927273
2023-02-27T18:15:16.482Z,5.380282
2023-02-27T18:20:16.413Z,4.988889
2023-02-27T18:25:21.742Z,4.824648
2023-02-27T18:30:17.003Z,4.793151
2023-02-27T18:35:15.804Z,4.578873
2023-02-27T18:40:15.914Z,4.746154
2023-02-27T18:45:16.087Z,5.046528
2023-02-27T18:50:16.444Z,5.488966
2023-02-27T18:55:16.508Z,5.282270
2023-02-27T19:00:16.616Z,5.546099
2023-02-27T19:05:17.195Z,5.670629
2023-02-27T19:10:17.487Z,6.276552
2023-02-27T19:15:16.098Z,6.755172
2023-02-27T19:20:16.544Z,7.000690
2023-02-27T19:25:16.605Z,6.939726
2023-02-27T19:30:17.094Z,7.271429
2023-02-27T19:35:15.603Z,7.608276
2023-02-27T19:40:16.010Z,7.842177
2023-02-27T19:45:15.754Z,8.071034
2023-02-27T19:50:17.400Z,8.020690
2023-02-27T19:55:17.029Z,8.054110
2023-02-27T20:00:15.568Z,7.323448
2023-02-27T20:05:19.025Z,6.864828
2023-02-27T20:10:16.559Z,6.754483
2023-02-27T20:15:17.180Z,6.954110
2023-02-27T20:20:16.274Z,6.875000
2023-02-27T20:25:19.262Z,5.992199
2023-02-27T20:30:16.756Z,5.707801
2023-02-27T20:35:16.907Z,5.557343
2023-02-27T20:40:22.746Z,5.343571
2023-02-27T20:45:17.051Z,5.315714
2023-02-27T20:50:16.916Z,4.928467
2023-02-27T20:55:16.222Z,4.594286
2023-02-27T21:00:19.168Z,4.270714
2023-02-27T21:05:16.540Z,4.156429
2023-02-27T21:10:17.839Z,4.070504
2023-02-27T21:15:15.571Z,4.006475
2023-02-27T21:20:18.123Z,3.966187
2023-02-27T21:25:16.321Z,3.854015
2023-02-27T21:30:17.321Z,3.889928
2023-02-27T21:35:16.216Z,3.951079
2023-02-27T21:40:19.915Z,4.013986
2023-02-27T21:45:17.571Z,3.987143
2023-02-27T21:50:17.386Z,4.044604
2023-02-27T21:55:16.876Z,4.247857
2023-02-27T22:00:15.690Z,4.451429
2023-02-27T22:05:16.346Z,4.516783
2023-02-27T22:10:16.669Z,4.698611
2023-02-27T22:15:16.240Z,4.805556
2023-02-27T22:20:16.045Z,4.954861
2023-02-27T22:25:17.048Z,5.260417
2023-02-27T22:30:16.665Z,5.372917
2023-02-27T22:35:16.822Z,5.321678
2023-02-27T22:40:16.113Z,5.607639
2023-02-27T22:45:18.674Z,5.767606
2023-02-27T22:50:21.282Z,5.761538
2023-02-27T22:55:15.886Z,5.795833
2023-02-27T23:00:16.612Z,5.817361
2023-02-27T23:05:16.412Z,6.143448
2023-02-27T23:10:17.004Z,5.636735
2023-02-27T23:15:17.095Z,5.430822
2023-02-27T23:20:16.865Z,5.225694
2023-02-27T23:25:21.160Z,5.227586
2023-02-27T23:30:17.384Z,5.307692
2023-02-27T23:35:16.144Z,5.642254
2023-02-27T23:40:16.225Z,5.792308
2023-02-27T23:45:17.714Z,5.805479
2023-02-27T23:50:16.478Z,5.637063
2023-02-27T23:55:16.720Z,5.475352
